Sandy Ridge, NC (27046)

10:38 PM EST on December 04, 2016 (GMT -0500)
APRSWXNET | | Change Station

Elev 950 ft 36.45 °N, 80.05 °W | Updated 59 days ago

Rain
Rain
38 °F
Feels Like 38 °F
N
0
Wind Variable Wind from SSW
Gusts mph

Today
High -- | Low -- °F
--% Chance of Precip.
Yesterday
High -- | Low -- °F
Precip. -- in
Pressure 30.11 in
Visibility 2.5 miles
Clouds Overcast 300 ft
Dew Point 38 °F
Humidity 99%
Rainfall in
Snow Depth Not available.
7:16 AM 5:04 PM
Waxing Crescent, 28% visible
METAR KMTV 050315Z AUTO 00000KT 2 1/2SM -DZ OVC003 03/03 A3011 RMK AO2 P0001 T00330030
Pressure 30.11 in
Visibility 2.5 miles
Clouds Overcast 300 ft
Dew Point 38 °F
Humidity 99%
Rainfall in
Snow Depth Not available.
7:16 AM 5:04 PM
Waxing Crescent, 28% visible
METAR KMTV 050315Z AUTO 00000KT 2 1/2SM -DZ OVC003 03/03 A3011 RMK AO2 P0001 T00330030

10-Day Weather Forecast

Almanac

Astronomy

Dec. 04, 2016 Rise Set
Actual Time
Civil Twilight
Nautical Twilight
Astronomical Twilight
Moon
Length of Visible Light
Length of Day
Tomorrow will be .
, % of the Moon is Illuminated

Today's Extremes

State Highs State Lows

Community

WunderPhotos

Upload Photos

1,955,752 photos uploaded!

WunderBlog® & News

Nearby

Air Quality

  Air Quality AQ Index Pollutant
Not available.

Snow Depth

Station Depth Elevation

Earthquake Activity

City Distance Mag. Time & Date
Minimum magnitude displayed is 2.5.

Coastal Water Temperatures

Place Temperature

Stations

Nearby Weather Stations

Station Location Temp. Windchill Dew Point Humidity Wind Precip. Elev Updated Type
                   

Watches & Warnings

There are currently no watches in effect.